Time;durP1;ratioP1;P1;durP2;ratioP2;P2;SDS_P1;SDS_P2;PMS_P1;PMS_P2;Temp;Humidity;BMP_temperature;BMP_pressure;BME280_temperature;BME280_humidity;BME280_pressure;Samples;Min_cycle;Max_cycle;Signal;HPM_P1;HPM_P2
2023/09/13 00:46:02;;;;;;;2.87;2.20;;;11.90;99.90;;;;;;1936360;72;27869;-91
2023/09/13 01:57:16;;;;;;;6.63;1.90;;;11.60;99.90;;;;;;1914935;74;27149;-89
2023/09/13 02:42:49;;;;;;;2.40;1.67;;;11.30;99.90;;;;;;1850168;75;27473;-90
2023/09/13 02:45:42;;;;;;;2.77;1.90;;;11.30;99.90;;;;;;1813814;78;25662;-89
2023/09/13 02:48:31;;;;;;;9.63;1.80;;;11.30;99.90;;;;;;1807579;77;25305;-90
2023/09/13 02:51:22;;;;;;;3.83;1.90;;;11.20;99.90;;;;;;1818343;77;25734;-90
2023/09/13 02:54:24;;;;;;;3.27;1.60;;;11.10;99.90;;;;;;1799688;79;25432;-89
2023/09/13 03:32:01;;;;;;;1.60;1.47;;;11.00;99.90;;;;;;1888437;72;28845;-92
2023/09/13 04:52:19;;;;;;;7.97;1.57;;;10.50;99.90;;;;;;1971871;71;26952;-92
2023/09/13 05:26:00;;;;;;;4.77;1.70;;;10.40;99.90;;;;;;1897471;73;26403;-91
2023/09/13 06:09:51;;;;;;;6.93;1.40;;;10.70;99.90;;;;;;1921313;73;27131;-91
2023/09/13 06:28:24;;;;;;;2.30;1.30;;;10.90;99.90;;;;;;1924181;74;27854;-89
2023/09/13 06:47:09;;;;;;;2.33;1.50;;;11.10;99.90;;;;;;1903130;73;27425;-90
2023/09/13 07:03:00;;;;;;;1.50;1.40;;;11.90;99.90;;;;;;1856572;76;27081;-90
2023/09/13 07:35:22;;;;;;;3.00;1.80;;;13.00;99.90;;;;;;1922700;74;26336;-90
2023/09/13 07:52:37;;;;;;;2.00;1.77;;;13.20;99.90;;;;;;1881372;74;26409;-90
2023/09/13 07:58:45;;;;;;;3.27;1.90;;;13.30;99.90;;;;;;1980055;71;27001;-89
2023/09/13 08:01:33;;;;;;;5.77;1.70;;;13.10;99.90;;;;;;2013417;70;25624;-89
2023/09/13 08:04:22;;;;;;;2.33;1.70;;;13.20;99.90;;;;;;2011260;69;25346;-90
2023/09/13 08:07:11;;;;;;;2.37;1.70;;;13.40;99.90;;;;;;1974064;72;25253;-89
2023/09/13 08:13:35;;;;;;;3.40;1.60;;;13.60;99.90;;;;;;1936865;74;25697;-90
2023/09/13 08:16:24;;;;;;;1.97;1.77;;;13.70;99.90;;;;;;1945638;72;25247;-90
2023/09/13 08:19:14;;;;;;;1.90;1.63;;;13.60;99.90;;;;;;1934672;74;25191;-90
2023/09/13 08:22:04;;;;;;;3.13;1.60;;;13.80;99.90;;;;;;1941561;73;25624;-90
2023/09/13 08:24:53;;;;;;;4.10;1.50;;;13.80;99.90;;;;;;1950432;73;25693;-89
2023/09/13 08:27:41;;;;;;;3.47;2.00;;;13.90;99.90;;;;;;1942038;72;25203;-90
2023/09/13 08:30:30;;;;;;;2.77;1.30;;;14.00;99.90;;;;;;1945844;73;25160;-89
2023/09/13 08:33:18;;;;;;;1.63;1.53;;;13.90;99.90;;;;;;1934125;73;26936;-90
2023/09/13 08:36:07;;;;;;;6.90;1.60;;;14.00;99.90;;;;;;1951400;73;25263;-90
2023/09/13 08:38:56;;;;;;;1.67;1.57;;;14.20;99.90;;;;;;1941984;73;26641;-90
2023/09/13 08:41:50;;;;;;;2.77;1.33;;;14.20;99.90;;;;;;1939178;72;25214;-89
2023/09/13 08:44:37;;;;;;;2.27;1.60;;;14.30;99.90;;;;;;1973366;72;25195;-90
2023/09/13 08:47:27;;;;;;;2.87;1.67;;;14.60;99.90;;;;;;1956760;72;25232;-90
2023/09/13 08:50:23;;;;;;;1.63;1.30;;;14.60;99.90;;;;;;1986904;72;25236;-90
2023/09/13 08:53:08;;;;;;;1.60;1.50;;;14.70;99.90;;;;;;1968167;72;25257;-90
2023/09/13 08:55:57;;;;;;;1.77;1.50;;;14.80;99.90;;;;;;1968028;72;25233;-88
2023/09/13 08:58:46;;;;;;;1.70;1.60;;;14.80;99.90;;;;;;1945880;73;25272;-90
2023/09/13 09:01:36;;;;;;;1.60;1.50;;;15.10;99.90;;;;;;1941319;73;25944;-90
2023/09/13 09:04:25;;;;;;;1.60;1.50;;;15.10;99.90;;;;;;1997075;70;25707;-90
2023/09/13 09:07:17;;;;;;;1.53;1.33;;;15.30;99.90;;;;;;2027359;70;25268;-88
2023/09/13 09:10:11;;;;;;;1.50;1.40;;;15.50;99.90;;;;;;2027451;70;25304;-90
2023/09/13 09:13:00;;;;;;;1.50;1.40;;;15.20;99.90;;;;;;2013800;70;25222;-90
2023/09/13 09:18:42;;;;;;;1.77;1.67;;;15.10;99.90;;;;;;1955823;72;27522;-90
2023/09/13 09:21:33;;;;;;;3.07;1.70;;;15.20;99.90;;;;;;1944631;72;25744;-90
2023/09/13 09:24:21;;;;;;;1.70;1.60;;;15.50;99.90;;;;;;1928118;73;25291;-90
2023/09/13 09:27:10;;;;;;;1.67;1.57;;;16.00;99.90;;;;;;1929427;73;25770;-90
2023/09/13 09:32:47;;;;;;;1.50;1.40;;;15.80;99.90;;;;;;1927912;72;27437;-90
2023/09/13 09:35:36;;;;;;;2.23;1.40;;;15.80;99.90;;;;;;1843544;76;25185;-90
2023/09/13 09:38:28;;;;;;;1.40;1.23;;;15.90;99.90;;;;;;1825469;78;25223;-90
2023/09/13 09:41:16;;;;;;;1.63;1.30;;;16.30;99.90;;;;;;1916965;74;25289;-89
2023/09/13 09:44:06;;;;;;;2.70;1.40;;;15.90;99.90;;;;;;1902205;75;25505;-90
2023/09/13 10:00:14;;;;;;;1.33;1.23;;;16.00;99.90;;;;;;1929649;72;27034;-91
2023/09/13 10:07:43;;;;;;;1.20;1.20;;;16.60;99.90;;;;;;2056977;68;26398;-90
2023/09/13 10:10:34;;;;;;;1.40;1.30;;;17.10;99.90;;;;;;1979452;71;25244;-89
2023/09/13 10:13:23;;;;;;;1.37;1.20;;;17.40;99.90;;;;;;1979806;71;25187;-89
2023/09/13 10:19:03;;;;;;;3.30;1.50;;;16.70;99.90;;;;;;1958257;72;27025;-90
2023/09/13 10:21:53;;;;;;;1.60;1.40;;;16.50;99.90;;;;;;1942040;72;25240;-90
2023/09/13 10:27:40;;;;;;;1.30;1.20;;;16.90;99.90;;;;;;1952834;72;28044;-90
2023/09/13 10:30:32;;;;;;;1.20;1.20;;;17.10;99.90;;;;;;1923543;73;25269;-91
2023/09/13 10:33:22;;;;;;;2.20;1.30;;;17.30;99.90;;;;;;1918710;73;25817;-91
2023/09/13 10:36:14;;;;;;;1.50;1.20;;;17.50;99.90;;;;;;1931215;73;25316;-91
2023/09/13 10:39:10;;;;;;;1.30;1.20;;;17.30;99.90;;;;;;1916449;75;25661;-91
2023/09/13 10:44:51;;;;;;;1.40;1.30;;;17.30;99.90;;;;;;1953102;72;26949;-90
2023/09/13 10:47:40;;;;;;;1.40;1.30;;;17.10;99.90;;;;;;1916374;73;25167;-90
2023/09/13 10:50:31;;;;;;;1.30;1.20;;;17.10;99.90;;;;;;1929376;73;25362;-90
2023/09/13 10:53:20;;;;;;;1.30;1.20;;;17.00;99.90;;;;;;1920092;73;25223;-90
2023/09/13 10:56:12;;;;;;;1.33;1.23;;;17.40;99.90;;;;;;1923529;73;25257;-91
2023/09/13 10:59:04;;;;;;;1.37;1.10;;;17.70;99.90;;;;;;1925374;73;25242;-91
2023/09/13 11:01:53;;;;;;;1.80;1.20;;;17.70;99.90;;;;;;1933125;73;25700;-91
2023/09/13 11:04:42;;;;;;;2.90;1.10;;;17.80;99.90;;;;;;1927146;73;25189;-91
2023/09/13 11:07:31;;;;;;;3.20;1.20;;;17.50;99.90;;;;;;1931688;73;25377;-90
2023/09/13 11:10:21;;;;;;;2.97;1.20;;;17.50;99.90;;;;;;1926653;73;25676;-91
2023/09/13 11:13:17;;;;;;;1.73;1.10;;;17.50;99.90;;;;;;1934111;73;25664;-91
2023/09/13 11:16:07;;;;;;;1.10;1.10;;;17.60;99.90;;;;;;1933617;73;25235;-91
2023/09/13 11:18:57;;;;;;;1.23;1.10;;;17.90;99.90;;;;;;1931939;73;25273;-91
2023/09/13 11:21:51;;;;;;;1.30;1.20;;;18.30;99.90;;;;;;1929961;73;25212;-91
2023/09/13 11:24:41;;;;;;;3.40;1.40;;;18.10;99.90;;;;;;1917638;73;25554;-91
2023/09/13 11:30:19;;;;;;;1.83;1.30;;;18.20;99.90;;;;;;1955805;71;27122;-89
2023/09/13 11:33:07;;;;;;;2.10;1.00;;;18.10;99.90;;;;;;1935545;73;25274;-92
2023/09/13 11:35:58;;;;;;;1.43;1.20;;;17.70;99.90;;;;;;1933884;73;25767;-91
2023/09/13 11:38:48;;;;;;;1.40;1.30;;;17.70;99.90;;;;;;1938569;73;25375;-92
2023/09/13 11:41:40;;;;;;;1.03;1.00;;;17.80;99.90;;;;;;1934579;73;25286;-92
2023/09/13 11:44:30;;;;;;;2.90;1.20;;;17.60;99.90;;;;;;1906717;73;25635;-92
2023/09/13 11:47:19;;;;;;;1.80;1.27;;;17.90;99.90;;;;;;1896516;73;25172;-92
2023/09/13 11:50:09;;;;;;;4.87;1.20;;;18.30;99.90;;;;;;1897851;73;25841;-92
2023/09/13 11:53:11;;;;;;;1.30;1.20;;;18.30;99.90;;;;;;1911638;73;25234;-92
2023/09/13 11:56:02;;;;;;;1.60;1.10;;;18.30;99.90;;;;;;1923788;73;25163;-92
2023/09/13 11:58:51;;;;;;;1.20;1.10;;;18.80;99.90;;;;;;1908847;73;25346;-92
2023/09/13 12:01:45;;;;;;;1.00;1.00;;;18.70;99.90;;;;;;1924261;73;25212;-91
2023/09/13 12:04:35;;;;;;;1.20;1.10;;;18.60;99.90;;;;;;1924495;73;25707;-92
2023/09/13 12:10:13;;;;;;;0.97;0.97;;;18.30;99.90;;;;;;1930351;72;27239;-90
2023/09/13 12:16:00;;;;;;;1.43;1.20;;;18.00;99.90;;;;;;1920679;73;27073;-90
2023/09/13 12:18:50;;;;;;;1.00;1.00;;;17.90;99.90;;;;;;1899125;74;25310;-90
2023/09/13 12:21:44;;;;;;;1.10;1.10;;;17.90;99.90;;;;;;1908225;74;25327;-90
2023/09/13 13:02:52;;;;;;;2.73;1.20;;;18.20;99.90;;;;;;2066623;68;27881;-90
2023/09/13 13:08:38;;;;;;;1.23;1.10;;;17.80;99.90;;;;;;1944979;72;26928;-89
2023/09/13 13:11:29;;;;;;;1.47;1.20;;;17.90;99.90;;;;;;1933151;72;25235;-90
2023/09/13 13:14:19;;;;;;;1.70;1.30;;;17.90;99.90;;;;;;1940154;73;25173;-90
2023/09/13 13:17:08;;;;;;;1.27;1.20;;;17.80;99.90;;;;;;1935680;73;25632;-90
2023/09/13 13:19:57;;;;;;;0.90;0.90;;;17.80;99.90;;;;;;1929247;73;25281;-91
2023/09/13 13:22:45;;;;;;;2.90;1.30;;;17.70;99.90;;;;;;1934322;73;25150;-90
2023/09/13 13:25:35;;;;;;;1.13;1.03;;;17.80;99.90;;;;;;1931449;73;25178;-90
2023/09/13 13:28:23;;;;;;;2.30;1.10;;;17.90;99.90;;;;;;1931350;72;25761;-90
2023/09/13 13:31:14;;;;;;;2.53;1.00;;;17.70;99.90;;;;;;1938908;73;25669;-90
2023/09/13 13:50:33;;;;;;;1.27;1.20;;;17.40;99.90;;;;;;1948134;72;27606;-90
2023/09/13 13:53:26;;;;;;;1.63;1.07;;;17.50;99.90;;;;;;1937243;73;25329;-90
2023/09/13 13:56:13;;;;;;;2.93;1.23;;;17.80;99.90;;;;;;1929313;73;25664;-90
2023/09/13 13:59:03;;;;;;;1.30;1.20;;;18.10;99.90;;;;;;1934170;73;25304;-90
2023/09/13 14:01:51;;;;;;;1.03;1.00;;;18.30;99.90;;;;;;1916106;73;25286;-90
2023/09/13 14:07:26;;;;;;;1.17;1.07;;;18.20;99.90;;;;;;1941076;72;27046;-90
2023/09/13 14:10:15;;;;;;;2.83;1.10;;;18.20;99.90;;;;;;1929466;73;25249;-91
2023/09/13 14:13:03;;;;;;;1.07;0.90;;;18.10;99.90;;;;;;1943744;73;25757;-90
2023/09/13 14:30:20;;;;;;;1.30;1.00;;;18.00;99.90;;;;;;1916047;72;26919;-90
2023/09/13 15:10:18;;;;;;;1.70;1.00;;;17.60;99.90;;;;;;1986458;71;27443;-91
2023/09/13 15:13:06;;;;;;;1.90;0.90;;;17.60;99.90;;;;;;1957825;72;25288;-91
2023/09/13 15:15:55;;;;;;;3.10;1.40;;;17.60;99.90;;;;;;2032138;69;25256;-91
2023/09/13 15:18:44;;;;;;;1.53;1.20;;;17.60;99.90;;;;;;2035536;69;25275;-91
2023/09/13 15:21:34;;;;;;;1.40;1.30;;;17.50;99.90;;;;;;2033181;69;25188;-91
2023/09/13 15:24:25;;;;;;;1.33;1.23;;;17.50;99.90;;;;;;2031975;69;25165;-90
2023/09/13 15:27:15;;;;;;;3.07;1.00;;;17.40;99.90;;;;;;2042826;69;25736;-92
2023/09/13 15:30:06;;;;;;;3.67;1.10;;;17.30;99.90;;;;;;2037579;69;25131;-91
2023/09/13 15:32:56;;;;;;;3.70;1.00;;;17.20;99.90;;;;;;2032639;69;25712;-91
2023/09/13 15:35:48;;;;;;;1.03;0.93;;;17.00;99.90;;;;;;2046198;69;25183;-91
2023/09/13 15:38:37;;;;;;;1.00;1.00;;;16.80;99.90;;;;;;2042021;69;25240;-91
2023/09/13 15:41:27;;;;;;;1.70;1.07;;;16.80;99.90;;;;;;2026583;69;25312;-91
2023/09/13 15:47:10;;;;;;;1.30;1.20;;;16.90;99.90;;;;;;1950868;72;28720;-91
2023/09/13 15:50:45;;;;;;;2.10;1.30;;;16.90;99.90;;;;;;1937821;73;25597;-90
2023/09/13 15:53:33;;;;;;;2.13;1.20;;;16.80;99.90;;;;;;1932172;73;25548;-90
2023/09/13 15:56:21;;;;;;;1.53;1.23;;;16.80;99.90;;;;;;1927307;73;25713;-90
2023/09/13 15:59:10;;;;;;;1.50;1.20;;;16.70;99.90;;;;;;1923593;73;25686;-90
2023/09/13 16:01:59;;;;;;;2.43;1.20;;;16.70;99.90;;;;;;1930676;73;25174;-90
2023/09/13 16:04:50;;;;;;;2.20;1.27;;;16.60;99.90;;;;;;1917547;73;25224;-90
2023/09/13 16:07:37;;;;;;;1.93;1.03;;;16.60;99.90;;;;;;1925451;73;26508;-90
2023/09/13 16:10:25;;;;;;;1.63;1.53;;;16.50;99.90;;;;;;1931460;73;25199;-90
2023/09/13 16:13:15;;;;;;;2.87;1.07;;;16.50;99.90;;;;;;1930242;73;25167;-90
2023/09/13 16:18:45;;;;;;;1.80;1.20;;;16.50;99.90;;;;;;1937231;72;27087;-90
2023/09/13 16:21:34;;;;;;;3.97;1.10;;;16.60;99.90;;;;;;1906261;75;25195;-89
2023/09/13 16:24:23;;;;;;;2.57;1.30;;;16.70;99.90;;;;;;1864108;76;25281;-90
2023/09/13 16:27:11;;;;;;;4.20;1.10;;;16.80;99.90;;;;;;1848291;77;25736;-90
2023/09/13 16:30:00;;;;;;;2.10;1.30;;;16.80;99.90;;;;;;1828058;76;25223;-89
2023/09/13 16:32:50;;;;;;;1.70;1.10;;;16.90;99.90;;;;;;1848092;76;25293;-89
2023/09/13 16:35:39;;;;;;;1.83;1.10;;;17.00;99.90;;;;;;1862529;76;25261;-90
2023/09/13 16:38:27;;;;;;;1.97;1.10;;;16.90;99.90;;;;;;1832305;77;25208;-89
2023/09/13 16:41:15;;;;;;;2.00;1.00;;;16.90;99.90;;;;;;1861911;76;25271;-89
2023/09/13 16:44:05;;;;;;;1.30;1.20;;;16.80;99.90;;;;;;1798832;78;25367;-89
2023/09/13 16:46:54;;;;;;;2.43;0.90;;;16.70;99.90;;;;;;1891313;74;25152;-89
2023/09/13 16:49:43;;;;;;;2.87;1.10;;;16.60;99.90;;;;;;1859643;75;25224;-89
2023/09/13 16:55:30;;;;;;;2.07;1.07;;;16.50;99.90;;;;;;1948101;72;26996;-89
2023/09/13 16:58:18;;;;;;;3.13;1.10;;;16.30;99.90;;;;;;1933536;73;25231;-89
2023/09/13 17:01:07;;;;;;;4.17;1.10;;;16.20;99.90;;;;;;1947755;72;25299;-89
2023/09/13 17:03:55;;;;;;;1.33;1.23;;;16.00;99.90;;;;;;1946445;73;25268;-89
2023/09/13 17:06:44;;;;;;;4.50;1.30;;;15.90;99.90;;;;;;1930609;73;25278;-89
2023/09/13 17:09:33;;;;;;;1.80;1.30;;;15.70;99.90;;;;;;1955457;72;25886;-89
2023/09/13 17:12:22;;;;;;;2.10;1.00;;;15.60;99.90;;;;;;1938059;73;25313;-89
2023/09/13 17:15:11;;;;;;;1.97;0.93;;;15.50;99.90;;;;;;1947330;73;25850;-89
2023/09/13 17:18:00;;;;;;;3.77;1.30;;;15.40;99.90;;;;;;1963529;72;25233;-89
2023/09/13 17:20:49;;;;;;;1.13;1.10;;;15.30;99.90;;;;;;1925003;72;25199;-89
2023/09/13 17:23:38;;;;;;;2.23;1.20;;;15.20;99.90;;;;;;1930390;72;25278;-89
2023/09/13 17:26:27;;;;;;;2.47;1.10;;;15.00;99.90;;;;;;1929001;72;25233;-89
2023/09/13 17:29:15;;;;;;;2.73;1.03;;;15.00;99.90;;;;;;1944289;72;25208;-89
2023/09/13 17:34:45;;;;;;;1.07;0.97;;;14.70;99.90;;;;;;1941010;72;27840;-89
2023/09/13 17:40:14;;;;;;;1.50;1.03;;;14.50;99.90;;;;;;1936876;72;27090;-89
2023/09/13 17:43:03;;;;;;;1.53;1.20;;;14.40;99.90;;;;;;1881339;75;25260;-89
2023/09/13 17:48:33;;;;;;;4.73;1.00;;;14.30;99.90;;;;;;1923874;72;27606;-89
2023/09/13 17:51:23;;;;;;;1.53;1.00;;;14.20;99.90;;;;;;1891731;74;25182;-89
2023/09/13 17:54:12;;;;;;;4.87;1.10;;;14.10;99.90;;;;;;1861121;76;25298;-90
2023/09/13 17:57:01;;;;;;;1.70;1.10;;;14.00;99.90;;;;;;1843448;77;25783;-90
2023/09/13 18:02:31;;;;;;;2.33;1.30;;;13.80;99.90;;;;;;1926333;72;27608;-89
2023/09/13 18:05:20;;;;;;;1.20;1.03;;;13.80;99.90;;;;;;1873585;76;25833;-89
2023/09/13 18:08:10;;;;;;;2.50;1.17;;;13.70;99.90;;;;;;1839269;76;25755;-89
2023/09/13 18:11:00;;;;;;;2.37;1.10;;;13.60;99.90;;;;;;1803378;78;25252;-89
2023/09/13 18:13:49;;;;;;;4.20;1.20;;;13.60;99.90;;;;;;1863435;76;25240;-89
2023/09/13 18:19:17;;;;;;;2.00;1.40;;;13.40;99.90;;;;;;1946460;72;27019;-89
2023/09/13 18:22:06;;;;;;;1.90;1.30;;;13.30;99.90;;;;;;1966464;71;25221;-89
2023/09/13 18:24:55;;;;;;;1.23;1.13;;;13.20;99.90;;;;;;1961055;72;25717;-89
2023/09/13 18:27:44;;;;;;;2.73;1.30;;;13.00;99.90;;;;;;1938780;72;25239;-89
2023/09/13 18:30:33;;;;;;;3.20;1.20;;;12.90;99.90;;;;;;1917565;74;25894;-89
2023/09/13 18:33:22;;;;;;;2.17;1.20;;;12.90;99.90;;;;;;1919496;73;25179;-89
2023/09/13 18:36:10;;;;;;;2.07;1.30;;;12.90;99.90;;;;;;1928117;73;25309;-89
2023/09/13 18:38:59;;;;;;;2.27;1.30;;;12.70;99.90;;;;;;1923349;73;25757;-89
2023/09/13 18:41:48;;;;;;;1.30;1.20;;;12.70;99.90;;;;;;1908650;73;25756;-89
2023/09/13 18:44:36;;;;;;;1.13;1.10;;;12.60;99.90;;;;;;1936041;73;25715;-89
2023/09/13 18:47:25;;;;;;;2.30;1.40;;;12.60;99.90;;;;;;1938090;72;25280;-89
2023/09/13 18:50:14;;;;;;;3.23;1.70;;;12.50;99.90;;;;;;1937894;72;25330;-89
2023/09/13 18:53:03;;;;;;;3.37;1.80;;;12.40;99.90;;;;;;1938566;72;25657;-89
2023/09/13 18:55:52;;;;;;;7.53;1.70;;;12.30;99.90;;;;;;1908848;73;25824;-90
2023/09/13 18:58:41;;;;;;;4.33;1.43;;;12.20;99.90;;;;;;1896723;75;25286;-89
2023/09/13 19:01:30;;;;;;;1.40;1.30;;;12.20;99.90;;;;;;1899038;74;25652;-89
2023/09/13 19:04:18;;;;;;;1.27;1.13;;;12.10;99.90;;;;;;1902056;74;25240;-89
2023/09/13 19:07:07;;;;;;;1.33;1.23;;;12.10;99.90;;;;;;1892348;75;25277;-89
2023/09/13 19:09:58;;;;;;;3.33;1.50;;;12.00;99.90;;;;;;1902285;75;25293;-90
2023/09/13 19:12:47;;;;;;;6.67;1.60;;;11.90;99.90;;;;;;1901067;75;25280;-89
2023/09/13 19:15:36;;;;;;;2.20;1.40;;;11.90;99.90;;;;;;1894678;75;25705;-89
2023/09/13 19:18:25;;;;;;;1.70;1.53;;;11.90;99.90;;;;;;1898163;75;25914;-88
2023/09/13 19:21:14;;;;;;;3.03;1.70;;;11.80;99.90;;;;;;1903904;74;25806;-87
2023/09/13 19:24:02;;;;;;;2.00;1.60;;;11.70;99.90;;;;;;1900472;75;25267;-88
2023/09/13 19:26:51;;;;;;;1.50;1.40;;;11.60;99.90;;;;;;1899782;75;25859;-87
2023/09/13 19:29:41;;;;;;;2.40;1.50;;;11.50;99.90;;;;;;1896559;75;25254;-87
2023/09/13 19:32:32;;;;;;;2.53;1.60;;;11.50;99.90;;;;;;1903586;75;25668;-88
2023/09/13 19:35:18;;;;;;;2.40;1.67;;;;;;;;;;1892243;75;25764;-87
2023/09/13 19:40:51;;;;;;;3.83;1.77;;;11.30;99.90;;;;;;1905640;74;27099;-88
2023/09/13 19:46:20;;;;;;;2.77;1.60;;;11.10;99.90;;;;;;1936774;72;27008;-87
2023/09/13 19:49:09;;;;;;;4.83;1.50;;;11.10;99.90;;;;;;1900769;75;25260;-89
2023/09/13 19:51:57;;;;;;;1.60;1.33;;;11.00;99.90;;;;;;1883756;75;25314;-88
2023/09/13 19:54:46;;;;;;;1.43;1.20;;;11.00;99.90;;;;;;1899618;75;25321;-89
2023/09/13 19:57:34;;;;;;;1.40;1.30;;;11.00;99.90;;;;;;1909012;73;25264;-89
2023/09/13 20:00:28;;;;;;;3.83;1.67;;;10.90;99.90;;;;;;1900748;75;25678;-89
2023/09/13 20:03:13;;;;;;;1.50;1.30;;;10.90;99.90;;;;;;1903412;75;25349;-89
2023/09/13 20:06:03;;;;;;;2.93;1.50;;;10.90;99.90;;;;;;1901747;75;25237;-89
2023/09/13 20:08:52;;;;;;;2.63;1.47;;;10.90;99.90;;;;;;1904812;75;25263;-89
2023/09/13 20:11:46;;;;;;;3.87;1.43;;;10.90;99.90;;;;;;1905823;75;25235;-89
2023/09/13 20:14:33;;;;;;;1.40;1.30;;;10.90;99.90;;;;;;1898871;75;25174;-89
2023/09/13 20:17:23;;;;;;;2.13;1.23;;;11.00;99.90;;;;;;1905883;73;25278;-89
2023/09/13 20:20:13;;;;;;;4.53;1.47;;;11.10;99.90;;;;;;1908230;75;25691;-88
2023/09/13 20:23:02;;;;;;;8.50;1.37;;;11.10;99.90;;;;;;1891894;75;25372;-88
2023/09/13 20:25:52;;;;;;;2.80;1.10;;;11.20;99.90;;;;;;1910557;75;25179;-87
2023/09/13 20:28:40;;;;;;;1.40;1.30;;;11.20;99.90;;;;;;1914399;75;25292;-87
2023/09/13 20:31:31;;;;;;;2.30;1.30;;;11.40;99.90;;;;;;1906146;75;25300;-88
2023/09/13 20:34:18;;;;;;;2.30;1.33;;;11.50;99.90;;;;;;1898994;75;25843;-88
2023/09/13 20:37:07;;;;;;;4.50;1.03;;;11.50;99.90;;;;;;1911440;73;25736;-88
2023/09/13 20:39:58;;;;;;;2.33;1.30;;;11.60;99.90;;;;;;1909699;75;25384;-88
2023/09/13 20:45:31;;;;;;;3.00;1.40;;;11.60;99.90;;;;;;2005026;69;27044;-88
2023/09/13 20:48:20;;;;;;;1.40;1.10;;;11.50;99.90;;;;;;1964762;72;25869;-88
2023/09/13 20:51:09;;;;;;;1.17;1.07;;;11.50;99.90;;;;;;1996367;70;25218;-88
2023/09/13 20:53:57;;;;;;;1.43;1.20;;;11.50;99.90;;;;;;1947937;72;25667;-88
2023/09/13 20:56:46;;;;;;;3.23;1.20;;;11.40;99.90;;;;;;2003268;70;25330;-88
2023/09/13 20:59:35;;;;;;;1.93;1.50;;;11.40;99.90;;;;;;1990158;70;25172;-88
2023/09/13 21:02:23;;;;;;;1.37;1.10;;;11.30;99.90;;;;;;2000152;70;25242;-88
2023/09/13 21:07:50;;;;;;;2.97;1.27;;;11.10;99.90;;;;;;1918705;74;27159;-88
2023/09/13 21:13:25;;;;;;;4.83;1.30;;;10.90;99.90;;;;;;1946012;72;27005;-89
2023/09/13 21:16:14;;;;;;;1.00;1.00;;;10.90;99.90;;;;;;1905619;73;25297;-88
2023/09/13 21:19:03;;;;;;;1.43;1.33;;;10.80;99.90;;;;;;1912763;73;25269;-88
2023/09/13 21:21:52;;;;;;;2.87;1.53;;;10.80;99.90;;;;;;1916241;74;25279;-88
2023/09/13 21:24:42;;;;;;;1.40;1.30;;;10.60;99.90;;;;;;1911837;74;25876;-88
2023/09/13 21:27:31;;;;;;;1.50;1.40;;;10.60;99.90;;;;;;1926875;73;25282;-88
2023/09/13 21:30:21;;;;;;;5.43;1.30;;;10.50;99.90;;;;;;1911232;74;25386;-88
2023/09/13 21:35:50;;;;;;;1.43;1.00;;;10.40;99.90;;;;;;1950143;72;27100;-87
2023/09/13 21:38:40;;;;;;;2.23;1.27;;;10.40;99.90;;;;;;1918840;73;25407;-89
2023/09/13 21:44:09;;;;;;;1.40;1.30;;;10.20;99.90;;;;;;1946401;72;27124;-88
2023/09/13 21:46:57;;;;;;;2.50;1.20;;;10.20;99.90;;;;;;1908547;73;25352;-88
2023/09/13 21:49:46;;;;;;;2.00;1.33;;;10.20;99.90;;;;;;1886911;75;25314;-88
2023/09/13 21:52:34;;;;;;;1.27;1.17;;;10.20;99.90;;;;;;1880193;75;25223;-88
2023/09/13 21:55:23;;;;;;;2.90;1.10;;;10.10;99.90;;;;;;1911542;75;25763;-88
2023/09/13 21:58:18;;;;;;;2.30;1.03;;;10.00;99.90;;;;;;1903722;75;25280;-89
2023/09/13 22:01:04;;;;;;;1.40;1.20;;;9.90;99.90;;;;;;1911833;75;25221;-87
2023/09/13 22:03:53;;;;;;;1.90;1.10;;;9.90;99.90;;;;;;1901054;75;25704;-88
2023/09/13 22:06:41;;;;;;;1.20;1.10;;;9.90;99.90;;;;;;1913326;75;25242;-88
2023/09/13 22:09:30;;;;;;;4.57;1.10;;;9.90;99.90;;;;;;1906171;73;25660;-88
2023/09/13 22:12:19;;;;;;;1.57;1.20;;;9.80;99.90;;;;;;1909306;75;25823;-88
2023/09/13 22:15:09;;;;;;;4.00;1.00;;;9.80;99.90;;;;;;1896773;75;25271;-88
2023/09/13 22:17:57;;;;;;;0.90;0.90;;;9.70;99.90;;;;;;1900383;73;25271;-88
2023/09/13 22:23:30;;;;;;;1.10;1.00;;;9.60;99.90;;;;;;1942372;72;27037;-87
2023/09/13 22:26:16;;;;;;;0.93;0.93;;;9.60;99.90;;;;;;1935432;73;25867;-89
2023/09/13 22:31:54;;;;;;;1.20;1.10;;;9.60;99.90;;;;;;1938666;72;27424;-88
2023/09/13 22:34:43;;;;;;;1.20;1.10;;;9.50;99.90;;;;;;1875083;74;25250;-88
2023/09/13 22:37:32;;;;;;;1.50;1.10;;;9.40;99.90;;;;;;1871403;76;25704;-88
2023/09/13 22:40:20;;;;;;;3.47;1.10;;;9.30;99.90;;;;;;1872303;76;25720;-88
2023/09/13 22:43:09;;;;;;;1.03;1.00;;;9.30;99.90;;;;;;1877650;76;25269;-88
2023/09/13 22:45:57;;;;;;;6.07;1.33;;;9.30;99.90;;;;;;1861932;76;25221;-88
2023/09/13 22:48:47;;;;;;;2.73;1.10;;;9.30;99.90;;;;;;1858710;76;25903;-88
2023/09/13 22:51:36;;;;;;;1.03;1.00;;;9.30;99.90;;;;;;1871041;76;25266;-88
2023/09/13 22:54:26;;;;;;;1.00;1.00;;;9.20;99.90;;;;;;1866134;74;25188;-88
2023/09/13 22:59:55;;;;;;;1.40;1.30;;;9.20;99.90;;;;;;1934277;72;27574;-88
2023/09/13 23:02:43;;;;;;;3.03;1.33;;;9.10;99.90;;;;;;1911491;74;25139;-88
2023/09/13 23:05:34;;;;;;;1.73;1.00;;;9.20;99.90;;;;;;1871907;76;25736;-88
2023/09/13 23:08:22;;;;;;;2.23;1.07;;;9.10;99.90;;;;;;1819580;77;25890;-88
2023/09/13 23:11:12;;;;;;;1.33;1.00;;;9.20;99.90;;;;;;1844339;77;25269;-88
2023/09/13 23:14:01;;;;;;;0.90;0.90;;;9.20;99.90;;;;;;1839522;77;25747;-88
2023/09/13 23:16:50;;;;;;;1.63;1.10;;;9.20;99.90;;;;;;1844905;77;25177;-88
2023/09/13 23:19:39;;;;;;;1.40;1.03;;;9.20;99.90;;;;;;1871435;76;25252;-88
2023/09/13 23:22:27;;;;;;;1.07;1.00;;;9.30;99.90;;;;;;1844504;77;25335;-88
2023/09/13 23:25:17;;;;;;;1.27;1.17;;;9.30;99.90;;;;;;1867630;76;25287;-88
2023/09/13 23:28:07;;;;;;;12.40;1.33;;;9.30;99.90;;;;;;1819429;77;25248;-88
2023/09/13 23:31:04;;;;;;;1.60;0.90;;;9.30;99.90;;;;;;1844707;76;25241;-88
2023/09/13 23:33:53;;;;;;;0.90;0.90;;;9.20;99.90;;;;;;1863568;76;25752;-88
2023/09/13 23:36:44;;;;;;;1.17;0.90;;;9.20;99.90;;;;;;1814413;78;25763;-88
2023/09/13 23:39:31;;;;;;;0.90;0.90;;;9.20;99.90;;;;;;1903325;73;25266;-88
2023/09/13 23:45:02;;;;;;;1.13;1.03;;;9.20;99.90;;;;;;1933821;72;27157;-87
2023/09/13 23:47:51;;;;;;;0.83;0.80;;;9.10;99.90;;;;;;1899877;75;25587;-88
2023/09/13 23:50:39;;;;;;;1.10;0.83;;;9.10;99.90;;;;;;1905053;75;25284;-88
2023/09/13 23:56:08;;;;;;;1.20;0.80;;;9.10;99.90;;;;;;1930910;72;27091;-88
2023/09/13 23:58:56;;;;;;;0.90;0.90;;;9.00;99.90;;;;;;1902376;73;25295;-88
